sensor_id;sensor_type;location;lat;lon;timestamp;pressure;altitude;pressure_sealevel;temperature
66180;BMP280;52986;44.028;20.466;2023-06-14T00:01:38;97770.88;;;14.59
66180;BMP280;52986;44.028;20.466;2023-06-14T00:04:04;97782.75;;;14.67
66180;BMP280;52986;44.028;20.466;2023-06-14T00:06:34;97786.72;;;14.71
66180;BMP280;52986;44.028;20.466;2023-06-14T00:08:59;97781.63;;;14.73
66180;BMP280;52986;44.028;20.466;2023-06-14T00:11:24;97779.91;;;14.76
66180;BMP280;52986;44.028;20.466;2023-06-14T00:13:52;97775.19;;;14.71
66180;BMP280;52986;44.028;20.466;2023-06-14T00:16:17;97791.03;;;14.63
66180;BMP280;52986;44.028;20.466;2023-06-14T00:18:44;97793.28;;;14.50
66180;BMP280;52986;44.028;20.466;2023-06-14T00:21:10;97792.47;;;14.44
66180;BMP280;52986;44.028;20.466;2023-06-14T00:23:35;97798.97;;;14.52
66180;BMP280;52986;44.028;20.466;2023-06-14T00:26:00;97806.38;;;14.57
66180;BMP280;52986;44.028;20.466;2023-06-14T00:28:26;97802.69;;;14.55
66180;BMP280;52986;44.028;20.466;2023-06-14T00:30:51;97802.53;;;14.64
66180;BMP280;52986;44.028;20.466;2023-06-14T00:33:16;97790.84;;;14.67
66180;BMP280;52986;44.028;20.466;2023-06-14T00:35:42;97793.63;;;14.72
66180;BMP280;52986;44.028;20.466;2023-06-14T00:38:07;97789.13;;;14.69
66180;BMP280;52986;44.028;20.466;2023-06-14T00:40:32;97794.25;;;14.67
66180;BMP280;52986;44.028;20.466;2023-06-14T00:43:00;97792.56;;;14.70
66180;BMP280;52986;44.028;20.466;2023-06-14T00:45:25;97796.16;;;14.61
66180;BMP280;52986;44.028;20.466;2023-06-14T00:47:51;97801.94;;;14.54
66180;BMP280;52986;44.028;20.466;2023-06-14T00:50:20;97797.22;;;14.49
66180;BMP280;52986;44.028;20.466;2023-06-14T00:52:46;97790.59;;;14.50
66180;BMP280;52986;44.028;20.466;2023-06-14T00:55:12;97791.53;;;14.47
66180;BMP280;52986;44.028;20.466;2023-06-14T00:57:37;97789.13;;;14.49
66180;BMP280;52986;44.028;20.466;2023-06-14T01:00:05;97786.16;;;14.47
66180;BMP280;52986;44.028;20.466;2023-06-14T01:02:36;97786.09;;;14.41
66180;BMP280;52986;44.028;20.466;2023-06-14T01:05:02;97787.06;;;14.44
66180;BMP280;52986;44.028;20.466;2023-06-14T01:13:05;97777.38;;;14.17
66180;BMP280;52986;44.028;20.466;2023-06-14T01:15:32;97778.06;;;14.12
66180;BMP280;52986;44.028;20.466;2023-06-14T01:17:59;97778.72;;;14.07
66180;BMP280;52986;44.028;20.466;2023-06-14T01:20:30;97785.97;;;14.01
66180;BMP280;52986;44.028;20.466;2023-06-14T01:22:56;97773.63;;;13.94
66180;BMP280;52986;44.028;20.466;2023-06-14T01:25:22;97781.41;;;13.92
66180;BMP280;52986;44.028;20.466;2023-06-14T01:27:50;97777.69;;;13.90
66180;BMP280;52986;44.028;20.466;2023-06-14T01:30:16;97764.50;;;13.92
66180;BMP280;52986;44.028;20.466;2023-06-14T01:32:42;97761.81;;;13.92
66180;BMP280;52986;44.028;20.466;2023-06-14T01:35:08;97759.34;;;13.88
66180;BMP280;52986;44.028;20.466;2023-06-14T01:37:34;97773.50;;;13.89
66180;BMP280;52986;44.028;20.466;2023-06-14T01:40:03;97769.16;;;13.91
66180;BMP280;52986;44.028;20.466;2023-06-14T01:42:29;97769.69;;;13.95
66180;BMP280;52986;44.028;20.466;2023-06-14T01:44:55;97763.03;;;13.91
66180;BMP280;52986;44.028;20.466;2023-06-14T01:47:21;97771.38;;;13.93
66180;BMP280;52986;44.028;20.466;2023-06-14T01:49:47;97776.94;;;13.89
66180;BMP280;52986;44.028;20.466;2023-06-14T01:52:12;97774.25;;;13.89
66180;BMP280;52986;44.028;20.466;2023-06-14T01:54:38;97771.56;;;13.89
66180;BMP280;52986;44.028;20.466;2023-06-14T01:57:08;97779.44;;;13.93
66180;BMP280;52986;44.028;20.466;2023-06-14T01:59:33;97772.59;;;13.92
66180;BMP280;52986;44.028;20.466;2023-06-14T02:02:02;97773.22;;;13.87
66180;BMP280;52986;44.028;20.466;2023-06-14T02:04:27;97776.75;;;13.78
66180;BMP280;52986;44.028;20.466;2023-06-14T02:06:53;97778.25;;;13.79
66180;BMP280;52986;44.028;20.466;2023-06-14T02:09:18;97777.72;;;13.75
66180;BMP280;52986;44.028;20.466;2023-06-14T02:11:43;97782.78;;;13.73
66180;BMP280;52986;44.028;20.466;2023-06-14T02:14:09;97785.72;;;13.69
66180;BMP280;52986;44.028;20.466;2023-06-14T02:16:37;97782.06;;;13.72
66180;BMP280;52986;44.028;20.466;2023-06-14T02:19:04;97776.50;;;13.76
66180;BMP280;52986;44.028;20.466;2023-06-14T02:21:29;97774.25;;;13.74
66180;BMP280;52986;44.028;20.466;2023-06-14T02:23:55;97775.03;;;13.75
66180;BMP280;52986;44.028;20.466;2023-06-14T02:26:21;97780.09;;;13.73
66180;BMP280;52986;44.028;20.466;2023-06-14T02:28:48;97771.38;;;13.78
66180;BMP280;52986;44.028;20.466;2023-06-14T02:31:13;97779.09;;;13.70
66180;BMP280;52986;44.028;20.466;2023-06-14T02:33:38;97779.19;;;13.61
66180;BMP280;52986;44.028;20.466;2023-06-14T02:36:04;97777.31;;;13.53
66180;BMP280;52986;44.028;20.466;2023-06-14T02:38:30;97782.69;;;13.53
66180;BMP280;52986;44.028;20.466;2023-06-14T02:40:55;97779.06;;;13.56
66180;BMP280;52986;44.028;20.466;2023-06-14T02:43:21;97785.38;;;13.53
66180;BMP280;52986;44.028;20.466;2023-06-14T02:45:46;97790.50;;;13.51
66180;BMP280;52986;44.028;20.466;2023-06-14T02:48:12;97791.13;;;13.45
66180;BMP280;52986;44.028;20.466;2023-06-14T02:50:37;97793.34;;;13.47
66180;BMP280;52986;44.028;20.466;2023-06-14T02:53:02;97794.00;;;13.42
66180;BMP280;52986;44.028;20.466;2023-06-14T02:55:28;97794.00;;;13.42
66180;BMP280;52986;44.028;20.466;2023-06-14T02:57:54;97800.69;;;13.46
66180;BMP280;52986;44.028;20.466;2023-06-14T03:00:20;97799.13;;;13.55
66180;BMP280;52986;44.028;20.466;2023-06-14T03:02:45;97797.28;;;13.61
66180;BMP280;52986;44.028;20.466;2023-06-14T03:05:11;97797.28;;;13.61
66180;BMP280;52986;44.028;20.466;2023-06-14T03:07:36;97797.38;;;13.66
66180;BMP280;52986;44.028;20.466;2023-06-14T03:10:08;97799.88;;;13.70
66180;BMP280;52986;44.028;20.466;2023-06-14T03:12:34;97801.66;;;13.73
66180;BMP280;52986;44.028;20.466;2023-06-14T03:15:01;97802.56;;;13.85
66180;BMP280;52986;44.028;20.466;2023-06-14T03:17:26;97792.09;;;13.87
66180;BMP280;52986;44.028;20.466;2023-06-14T03:19:55;97799.13;;;13.99
66180;BMP280;52986;44.028;20.466;2023-06-14T03:22:20;97782.97;;;13.99
66180;BMP280;52986;44.028;20.466;2023-06-14T03:24:47;97798.28;;;14.07
66180;BMP280;52986;44.028;20.466;2023-06-14T03:27:13;97805.00;;;14.12
66180;BMP280;52986;44.028;20.466;2023-06-14T03:29:39;97802.66;;;14.20
66180;BMP280;52986;44.028;20.466;2023-06-14T03:32:05;97799.09;;;14.28
66180;BMP280;52986;44.028;20.466;2023-06-14T03:34:31;97802.03;;;14.45
66180;BMP280;52986;44.028;20.466;2023-06-14T03:36:56;97795.75;;;14.48
66180;BMP280;52986;44.028;20.466;2023-06-14T03:39:22;97795.06;;;14.53
66180;BMP280;52986;44.028;20.466;2023-06-14T03:41:47;97793.56;;;14.52
66180;BMP280;52986;44.028;20.466;2023-06-14T03:44:17;97808.31;;;14.57
66180;BMP280;52986;44.028;20.466;2023-06-14T03:46:43;97804.72;;;14.60
66180;BMP280;52986;44.028;20.466;2023-06-14T03:49:09;97807.03;;;14.67
66180;BMP280;52986;44.028;20.466;2023-06-14T03:51:35;97800.59;;;14.64
66180;BMP280;52986;44.028;20.466;2023-06-14T03:54:01;97816.56;;;14.68
66180;BMP280;52986;44.028;20.466;2023-06-14T03:56:26;97804.50;;;14.63
66180;BMP280;52986;44.028;20.466;2023-06-14T03:58:52;97807.88;;;14.58
66180;BMP280;52986;44.028;20.466;2023-06-14T04:01:17;97806.44;;;14.63
66180;BMP280;52986;44.028;20.466;2023-06-14T04:03:43;97801.81;;;14.63
66180;BMP280;52986;44.028;20.466;2023-06-14T04:06:08;97805.78;;;14.68
66180;BMP280;52986;44.028;20.466;2023-06-14T04:08:34;97804.50;;;14.63
66180;BMP280;52986;44.028;20.466;2023-06-14T04:11:00;97802.28;;;14.62
66180;BMP280;52986;44.028;20.466;2023-06-14T04:13:25;97806.81;;;14.70
66180;BMP280;52986;44.028;20.466;2023-06-14T04:15:51;97813.97;;;14.73
66180;BMP280;52986;44.028;20.466;2023-06-14T04:18:16;97814.50;;;14.77
66180;BMP280;52986;44.028;20.466;2023-06-14T04:20:43;97812.81;;;14.80
66180;BMP280;52986;44.028;20.466;2023-06-14T04:23:16;97808.91;;;14.81
66180;BMP280;52986;44.028;20.466;2023-06-14T04:25:43;97811.75;;;14.92
66180;BMP280;52986;44.028;20.466;2023-06-14T04:28:14;97806.75;;;15.05
66180;BMP280;52986;44.028;20.466;2023-06-14T04:30:43;97807.34;;;15.15
66180;BMP280;52986;44.028;20.466;2023-06-14T04:33:10;97804.72;;;15.21
66180;BMP280;52986;44.028;20.466;2023-06-14T04:35:36;97802.34;;;15.28
66180;BMP280;52986;44.028;20.466;2023-06-14T04:38:03;97798.50;;;15.35
66180;BMP280;52986;44.028;20.466;2023-06-14T04:40:34;97799.59;;;15.49
66180;BMP280;52986;44.028;20.466;2023-06-14T04:43:01;97806.34;;;15.59
66180;BMP280;52986;44.028;20.466;2023-06-14T04:45:30;97808.84;;;15.62
66180;BMP280;52986;44.028;20.466;2023-06-14T04:47:58;97801.72;;;15.65
66180;BMP280;52986;44.028;20.466;2023-06-14T04:50:24;97811.06;;;15.64
66180;BMP280;52986;44.028;20.466;2023-06-14T04:52:50;97811.88;;;15.75
66180;BMP280;52986;44.028;20.466;2023-06-14T04:55:16;97818.56;;;15.80
66180;BMP280;52986;44.028;20.466;2023-06-14T04:57:42;97805.03;;;15.74
66180;BMP280;52986;44.028;20.466;2023-06-14T05:00:08;97810.09;;;15.67
66180;BMP280;52986;44.028;20.466;2023-06-14T05:02:36;97811.63;;;15.73
66180;BMP280;52986;44.028;20.466;2023-06-14T05:05:03;97823.31;;;15.91
66180;BMP280;52986;44.028;20.466;2023-06-14T05:07:29;97826.91;;;16.08
66180;BMP280;52986;44.028;20.466;2023-06-14T05:09:55;97823.81;;;16.26
66180;BMP280;52986;44.028;20.466;2023-06-14T05:12:20;97821.59;;;16.62
66180;BMP280;52986;44.028;20.466;2023-06-14T05:14:46;97821.72;;;16.90
66180;BMP280;52986;44.028;20.466;2023-06-14T05:17:11;97821.06;;;17.23
66180;BMP280;52986;44.028;20.466;2023-06-14T05:19:36;97837.38;;;17.39
66180;BMP280;52986;44.028;20.466;2023-06-14T05:22:02;97830.47;;;17.38
66180;BMP280;52986;44.028;20.466;2023-06-14T05:24:28;97838.16;;;17.68
66180;BMP280;52986;44.028;20.466;2023-06-14T05:26:55;97828.53;;;18.11
66180;BMP280;52986;44.028;20.466;2023-06-14T05:29:21;97824.78;;;18.48
66180;BMP280;52986;44.028;20.466;2023-06-14T05:31:46;97826.47;;;18.62
66180;BMP280;52986;44.028;20.466;2023-06-14T05:34:11;97832.09;;;18.75
66180;BMP280;52986;44.028;20.466;2023-06-14T05:36:37;97837.16;;;19.07
66180;BMP280;52986;44.028;20.466;2023-06-14T05:39:02;97825.22;;;19.21
66180;BMP280;52986;44.028;20.466;2023-06-14T05:41:28;97823.47;;;19.18
66180;BMP280;52986;44.028;20.466;2023-06-14T05:43:55;97837.25;;;19.31
66180;BMP280;52986;44.028;20.466;2023-06-14T05:46:21;97828.72;;;19.51
66180;BMP280;52986;44.028;20.466;2023-06-14T05:48:50;97823.84;;;19.74
66180;BMP280;52986;44.028;20.466;2023-06-14T05:51:15;97824.13;;;19.71
66180;BMP280;52986;44.028;20.466;2023-06-14T05:53:44;97828.16;;;19.88
66180;BMP280;52986;44.028;20.466;2023-06-14T05:56:10;97837.63;;;20.06
66180;BMP280;52986;44.028;20.466;2023-06-14T05:58:35;97829.50;;;20.31
66180;BMP280;52986;44.028;20.466;2023-06-14T06:01:01;97835.19;;;20.51
66180;BMP280;52986;44.028;20.466;2023-06-14T06:03:26;97837.41;;;20.53
66180;BMP280;52986;44.028;20.466;2023-06-14T06:05:54;97831.06;;;20.64
66180;BMP280;52986;44.028;20.466;2023-06-14T06:08:20;97831.94;;;20.53
66180;BMP280;52986;44.028;20.466;2023-06-14T06:10:46;97836.94;;;20.49
66180;BMP280;52986;44.028;20.466;2023-06-14T06:13:11;97842.94;;;20.66
66180;BMP280;52986;44.028;20.466;2023-06-14T06:15:36;97834.31;;;21.00
66180;BMP280;52986;44.028;20.466;2023-06-14T06:18:02;97834.66;;;21.47
66180;BMP280;52986;44.028;20.466;2023-06-14T06:20:28;97843.22;;;21.70
66180;BMP280;52986;44.028;20.466;2023-06-14T06:22:56;97838.38;;;21.76
66180;BMP280;52986;44.028;20.466;2023-06-14T06:25:22;97833.81;;;21.97
66180;BMP280;52986;44.028;20.466;2023-06-14T06:27:47;97830.88;;;22.34
66180;BMP280;52986;44.028;20.466;2023-06-14T06:30:13;97833.88;;;22.70
66180;BMP280;52986;44.028;20.466;2023-06-14T06:32:38;97846.53;;;22.94
66180;BMP280;52986;44.028;20.466;2023-06-14T06:35:04;97834.19;;;23.22
66180;BMP280;52986;44.028;20.466;2023-06-14T06:37:31;97835.03;;;23.50
66180;BMP280;52986;44.028;20.466;2023-06-14T06:39:56;97836.66;;;23.74
66180;BMP280;52986;44.028;20.466;2023-06-14T06:42:22;97843.66;;;24.11
66180;BMP280;52986;44.028;20.466;2023-06-14T06:44:47;97840.19;;;24.54
66180;BMP280;52986;44.028;20.466;2023-06-14T06:47:13;97839.75;;;24.94
66180;BMP280;52986;44.028;20.466;2023-06-14T06:49:38;97843.06;;;25.15
66180;BMP280;52986;44.028;20.466;2023-06-14T06:52:05;97851.88;;;25.29
66180;BMP280;52986;44.028;20.466;2023-06-14T06:54:31;97858.09;;;25.45
66180;BMP280;52986;44.028;20.466;2023-06-14T06:56:57;97860.97;;;25.92
66180;BMP280;52986;44.028;20.466;2023-06-14T06:59:23;97863.28;;;26.18
66180;BMP280;52986;44.028;20.466;2023-06-14T07:01:48;97858.91;;;26.63
66180;BMP280;52986;44.028;20.466;2023-06-14T07:04:14;97858.56;;;27.16
66180;BMP280;52986;44.028;20.466;2023-06-14T07:06:39;97859.59;;;27.28
66180;BMP280;52986;44.028;20.466;2023-06-14T07:09:05;97861.34;;;26.84
66180;BMP280;52986;44.028;20.466;2023-06-14T07:11:33;97856.53;;;27.17
66180;BMP280;52986;44.028;20.466;2023-06-14T07:13:58;97866.63;;;27.22
66180;BMP280;52986;44.028;20.466;2023-06-14T07:16:24;97859.13;;;27.40
66180;BMP280;52986;44.028;20.466;2023-06-14T07:18:50;97859.41;;;28.03
66180;BMP280;52986;44.028;20.466;2023-06-14T07:21:16;97856.97;;;28.51
66180;BMP280;52986;44.028;20.466;2023-06-14T07:23:41;97853.72;;;29.08
66180;BMP280;52986;44.028;20.466;2023-06-14T07:26:07;97849.91;;;29.59
66180;BMP280;52986;44.028;20.466;2023-06-14T07:28:32;97847.16;;;29.88
66180;BMP280;52986;44.028;20.466;2023-06-14T07:30:58;97841.78;;;29.32
66180;BMP280;52986;44.028;20.466;2023-06-14T07:33:23;97854.94;;;29.24
66180;BMP280;52986;44.028;20.466;2023-06-14T07:35:48;97848.63;;;27.97
66180;BMP280;52986;44.028;20.466;2023-06-14T07:38:14;97843.63;;;27.27
66180;BMP280;52986;44.028;20.466;2023-06-14T07:40:40;97849.88;;;27.45
66180;BMP280;52986;44.028;20.466;2023-06-14T07:43:05;97850.41;;;27.01
66180;BMP280;52986;44.028;20.466;2023-06-14T07:45:30;97852.78;;;26.72
66180;BMP280;52986;44.028;20.466;2023-06-14T07:47:56;97856.75;;;26.54
66180;BMP280;52986;44.028;20.466;2023-06-14T07:50:22;97857.28;;;26.52
66180;BMP280;52986;44.028;20.466;2023-06-14T07:52:47;97865.63;;;26.37
66180;BMP280;52986;44.028;20.466;2023-06-14T07:55:14;97869.38;;;25.94
66180;BMP280;52986;44.028;20.466;2023-06-14T07:57:40;97864.31;;;25.53
66180;BMP280;52986;44.028;20.466;2023-06-14T08:00:06;97863.22;;;25.33
66180;BMP280;52986;44.028;20.466;2023-06-14T08:02:32;97866.53;;;25.47
66180;BMP280;52986;44.028;20.466;2023-06-14T08:04:57;97870.66;;;26.56
66180;BMP280;52986;44.028;20.466;2023-06-14T08:07:23;97890.00;;;27.55
66180;BMP280;52986;44.028;20.466;2023-06-14T08:09:49;97878.38;;;27.40
66180;BMP280;52986;44.028;20.466;2023-06-14T08:12:15;97872.03;;;27.05
66180;BMP280;52986;44.028;20.466;2023-06-14T08:14:42;97902.78;;;28.46
66180;BMP280;52986;44.028;20.466;2023-06-14T08:17:07;97873.06;;;29.93
66180;BMP280;52986;44.028;20.466;2023-06-14T08:19:33;97865.34;;;28.97
66180;BMP280;52986;44.028;20.466;2023-06-14T08:21:58;97876.69;;;27.44
66180;BMP280;52986;44.028;20.466;2023-06-14T08:24:25;97870.25;;;27.00
66180;BMP280;52986;44.028;20.466;2023-06-14T08:26:53;97875.03;;;26.59
66180;BMP280;52986;44.028;20.466;2023-06-14T08:29:18;97883.03;;;26.72
66180;BMP280;52986;44.028;20.466;2023-06-14T08:31:44;97894.78;;;28.85
66180;BMP280;52986;44.028;20.466;2023-06-14T08:34:10;97866.72;;;28.79
66180;BMP280;52986;44.028;20.466;2023-06-14T08:36:36;97869.94;;;27.97
66180;BMP280;52986;44.028;20.466;2023-06-14T08:39:01;97869.63;;;27.51
66180;BMP280;52986;44.028;20.466;2023-06-14T08:41:28;97872.31;;;27.41
66180;BMP280;52986;44.028;20.466;2023-06-14T08:43:55;97891.41;;;29.23
66180;BMP280;52986;44.028;20.466;2023-06-14T08:46:21;97864.38;;;29.12
66180;BMP280;52986;44.028;20.466;2023-06-14T08:48:51;97865.34;;;28.43
66180;BMP280;52986;44.028;20.466;2023-06-14T08:51:20;97863.22;;;28.07
66180;BMP280;52986;44.028;20.466;2023-06-14T08:53:53;97862.47;;;28.07
66180;BMP280;52986;44.028;20.466;2023-06-14T08:56:19;97860.63;;;28.09
66180;BMP280;52986;44.028;20.466;2023-06-14T08:58:46;97868.72;;;28.25
66180;BMP280;52986;44.028;20.466;2023-06-14T09:01:13;97880.41;;;29.32
66180;BMP280;52986;44.028;20.466;2023-06-14T09:03:41;97887.72;;;30.14
66180;BMP280;52986;44.028;20.466;2023-06-14T09:06:07;97860.81;;;29.86
66180;BMP280;52986;44.028;20.466;2023-06-14T09:08:34;97865.75;;;29.39
66180;BMP280;52986;44.028;20.466;2023-06-14T09:11:01;97863.56;;;28.38
66180;BMP280;52986;44.028;20.466;2023-06-14T09:13:27;97859.91;;;28.09
66180;BMP280;52986;44.028;20.466;2023-06-14T09:15:53;97866.28;;;27.94
66180;BMP280;52986;44.028;20.466;2023-06-14T09:18:19;97868.34;;;28.38
66180;BMP280;52986;44.028;20.466;2023-06-14T09:20:47;97857.13;;;28.26
66180;BMP280;52986;44.028;20.466;2023-06-14T09:23:13;97852.41;;;28.63
66180;BMP280;52986;44.028;20.466;2023-06-14T09:25:42;97849.84;;;28.75
66180;BMP280;52986;44.028;20.466;2023-06-14T09:28:08;97857.88;;;30.32
66180;BMP280;52986;44.028;20.466;2023-06-14T09:30:33;97883.59;;;30.44
66180;BMP280;52986;44.028;20.466;2023-06-14T09:32:59;97855.78;;;30.83
66180;BMP280;52986;44.028;20.466;2023-06-14T09:35:24;97876.38;;;31.74
66180;BMP280;52986;44.028;20.466;2023-06-14T09:37:50;97853.88;;;33.68
66180;BMP280;52986;44.028;20.466;2023-06-14T09:40:20;97860.69;;;34.70
66180;BMP280;52986;44.028;20.466;2023-06-14T09:42:46;97823.13;;;33.78
66180;BMP280;52986;44.028;20.466;2023-06-14T09:45:12;97827.56;;;32.60
66180;BMP280;52986;44.028;20.466;2023-06-14T09:47:39;97851.34;;;31.95
66180;BMP280;52986;44.028;20.466;2023-06-14T09:50:05;97845.63;;;33.08
66180;BMP280;52986;44.028;20.466;2023-06-14T09:52:31;97850.97;;;33.66
66180;BMP280;52986;44.028;20.466;2023-06-14T09:54:59;97855.31;;;33.94
66180;BMP280;52986;44.028;20.466;2023-06-14T09:57:25;97832.22;;;33.92
66180;BMP280;52986;44.028;20.466;2023-06-14T09:59:57;97844.56;;;33.89
66180;BMP280;52986;44.028;20.466;2023-06-14T10:02:31;97834.09;;;33.62
66180;BMP280;52986;44.028;20.466;2023-06-14T10:05:08;97831.16;;;34.10
66180;BMP280;52986;44.028;20.466;2023-06-14T10:07:42;97832.09;;;34.15
66180;BMP280;52986;44.028;20.466;2023-06-14T10:10:10;97826.63;;;34.31
66180;BMP280;52986;44.028;20.466;2023-06-14T10:12:36;97832.91;;;34.31
66180;BMP280;52986;44.028;20.466;2023-06-14T10:15:01;97818.34;;;33.92
66180;BMP280;52986;44.028;20.466;2023-06-14T10:17:50;97827.28;;;33.40
66180;BMP280;52986;44.028;20.466;2023-06-14T10:20:50;97817.06;;;32.24
66180;BMP280;52986;44.028;20.466;2023-06-14T10:23:21;97813.31;;;32.08
66180;BMP280;52986;44.028;20.466;2023-06-14T10:25:54;97819.19;;;32.02
66180;BMP280;52986;44.028;20.466;2023-06-14T10:28:21;97801.94;;;31.92
66180;BMP280;52986;44.028;20.466;2023-06-14T10:31:10;97804.66;;;32.71
66180;BMP280;52986;44.028;20.466;2023-06-14T10:33:49;97792.06;;;32.01
66180;BMP280;52986;44.028;20.466;2023-06-14T10:38:57;97813.84;;;31.50
66180;BMP280;52986;44.028;20.466;2023-06-14T10:41:23;97808.53;;;31.54
66180;BMP280;52986;44.028;20.466;2023-06-14T10:43:49;97801.72;;;32.00
66180;BMP280;52986;44.028;20.466;2023-06-14T10:46:18;97785.09;;;31.12
66180;BMP280;52986;44.028;20.466;2023-06-14T10:48:44;97799.69;;;30.92
66180;BMP280;52986;44.028;20.466;2023-06-14T10:51:17;97784.31;;;30.79
66180;BMP280;52986;44.028;20.466;2023-06-14T10:53:49;97793.66;;;30.74
66180;BMP280;52986;44.028;20.466;2023-06-14T10:56:32;97791.00;;;30.55
66180;BMP280;52986;44.028;20.466;2023-06-14T10:58:58;97789.34;;;31.68
66180;BMP280;52986;44.028;20.466;2023-06-14T11:04:17;97787.63;;;30.87
66180;BMP280;52986;44.028;20.466;2023-06-14T11:06:50;97783.56;;;31.75
66180;BMP280;52986;44.028;20.466;2023-06-14T11:09:26;97766.88;;;32.20
66180;BMP280;52986;44.028;20.466;2023-06-14T11:11:58;97776.41;;;30.85
66180;BMP280;52986;44.028;20.466;2023-06-14T11:14:24;97772.97;;;30.75
66180;BMP280;52986;44.028;20.466;2023-06-14T11:16:50;97775.13;;;31.73
66180;BMP280;52986;44.028;20.466;2023-06-14T11:19:15;97783.19;;;32.25
66180;BMP280;52986;44.028;20.466;2023-06-14T11:21:42;97773.47;;;31.47
66180;BMP280;52986;44.028;20.466;2023-06-14T11:24:11;97765.16;;;31.47
66180;BMP280;52986;44.028;20.466;2023-06-14T11:26:38;97753.56;;;30.54
66180;BMP280;52986;44.028;20.466;2023-06-14T11:29:03;97763.50;;;30.99
66180;BMP280;52986;44.028;20.466;2023-06-14T11:31:29;97768.88;;;31.19
66180;BMP280;52986;44.028;20.466;2023-06-14T11:33:57;97756.06;;;31.02
66180;BMP280;52986;44.028;20.466;2023-06-14T11:36:26;97756.19;;;31.04
66180;BMP280;52986;44.028;20.466;2023-06-14T11:39:00;97756.78;;;31.02
66180;BMP280;52986;44.028;20.466;2023-06-14T11:41:26;97751.38;;;30.83
66180;BMP280;52986;44.028;20.466;2023-06-14T11:43:56;97742.34;;;31.04
66180;BMP280;52986;44.028;20.466;2023-06-14T11:46:25;97743.50;;;30.89
66180;BMP280;52986;44.028;20.466;2023-06-14T11:48:51;97737.97;;;30.58
66180;BMP280;52986;44.028;20.466;2023-06-14T11:51:18;97735.31;;;30.39
66180;BMP280;52986;44.028;20.466;2023-06-14T11:53:44;97743.50;;;30.27
66180;BMP280;52986;44.028;20.466;2023-06-14T11:56:10;97736.09;;;30.51
66180;BMP280;52986;44.028;20.466;2023-06-14T11:58:36;97726.56;;;30.43
66180;BMP280;52986;44.028;20.466;2023-06-14T12:01:05;97715.06;;;30.37
66180;BMP280;52986;44.028;20.466;2023-06-14T12:03:31;97723.00;;;29.71
66180;BMP280;52986;44.028;20.466;2023-06-14T12:06:06;97717.34;;;29.59
66180;BMP280;52986;44.028;20.466;2023-06-14T12:08:36;97714.31;;;29.55
66180;BMP280;52986;44.028;20.466;2023-06-14T12:11:12;97712.88;;;29.35
66180;BMP280;52986;44.028;20.466;2023-06-14T12:13:39;97711.38;;;28.86
66180;BMP280;52986;44.028;20.466;2023-06-14T12:16:07;97716.56;;;28.26
66180;BMP280;52986;44.028;20.466;2023-06-14T12:18:37;97713.75;;;27.90
66180;BMP280;52986;44.028;20.466;2023-06-14T12:21:04;97713.31;;;27.32
66180;BMP280;52986;44.028;20.466;2023-06-14T12:23:45;97712.09;;;27.08
66180;BMP280;52986;44.028;20.466;2023-06-14T12:26:17;97712.66;;;26.89
66180;BMP280;52986;44.028;20.466;2023-06-14T12:28:47;97709.50;;;26.93
66180;BMP280;52986;44.028;20.466;2023-06-14T12:31:14;97720.09;;;26.96
66180;BMP280;52986;44.028;20.466;2023-06-14T12:33:40;97711.53;;;27.27
66180;BMP280;52986;44.028;20.466;2023-06-14T12:36:07;97732.28;;;27.62
66180;BMP280;52986;44.028;20.466;2023-06-14T12:38:33;97726.03;;;27.45
66180;BMP280;52986;44.028;20.466;2023-06-14T12:40:59;97732.56;;;27.66
66180;BMP280;52986;44.028;20.466;2023-06-14T12:43:24;97734.34;;;27.89
66180;BMP280;52986;44.028;20.466;2023-06-14T12:45:49;97733.34;;;27.94
66180;BMP280;52986;44.028;20.466;2023-06-14T12:48:15;97735.00;;;27.79
66180;BMP280;52986;44.028;20.466;2023-06-14T12:50:41;97730.88;;;27.54
66180;BMP280;52986;44.028;20.466;2023-06-14T12:53:06;97727.22;;;27.51
66180;BMP280;52986;44.028;20.466;2023-06-14T12:55:32;97727.25;;;27.17
66180;BMP280;52986;44.028;20.466;2023-06-14T12:57:58;97723.44;;;27.29
66180;BMP280;52986;44.028;20.466;2023-06-14T13:00:23;97730.56;;;26.90
66180;BMP280;52986;44.028;20.466;2023-06-14T13:02:50;97725.41;;;26.94
66180;BMP280;52986;44.028;20.466;2023-06-14T13:05:17;97734.31;;;26.85
66180;BMP280;52986;44.028;20.466;2023-06-14T13:07:42;97721.53;;;26.55
66180;BMP280;52986;44.028;20.466;2023-06-14T13:10:08;97730.72;;;26.75
66180;BMP280;52986;44.028;20.466;2023-06-14T13:12:34;97732.09;;;26.59
66180;BMP280;52986;44.028;20.466;2023-06-14T13:14:59;97734.25;;;26.68
66180;BMP280;52986;44.028;20.466;2023-06-14T13:17:24;97724.38;;;26.65
66180;BMP280;52986;44.028;20.466;2023-06-14T13:19:50;97730.28;;;26.62
66180;BMP280;52986;44.028;20.466;2023-06-14T13:22:15;97732.97;;;26.37
66180;BMP280;52986;44.028;20.466;2023-06-14T13:24:40;97723.00;;;26.24
66180;BMP280;52986;44.028;20.466;2023-06-14T13:27:06;97720.72;;;26.05
66180;BMP280;52986;44.028;20.466;2023-06-14T13:29:32;97719.13;;;25.87
66180;BMP280;52986;44.028;20.466;2023-06-14T13:31:58;97720.59;;;25.88
66180;BMP280;52986;44.028;20.466;2023-06-14T13:34:24;97721.03;;;25.69
66180;BMP280;52986;44.028;20.466;2023-06-14T13:36:49;97727.81;;;25.68
66180;BMP280;52986;44.028;20.466;2023-06-14T13:39:15;97729.16;;;25.45
66180;BMP280;52986;44.028;20.466;2023-06-14T13:41:41;97723.50;;;25.42
66180;BMP280;52986;44.028;20.466;2023-06-14T13:44:06;97725.69;;;25.36
66180;BMP280;52986;44.028;20.466;2023-06-14T13:46:32;97723.16;;;25.31
66180;BMP280;52986;44.028;20.466;2023-06-14T13:48:57;97726.28;;;25.20
66180;BMP280;52986;44.028;20.466;2023-06-14T13:51:23;97727.19;;;25.07
66180;BMP280;52986;44.028;20.466;2023-06-14T13:53:49;97725.75;;;24.98
66180;BMP280;52986;44.028;20.466;2023-06-14T13:56:16;97731.94;;;24.84
66180;BMP280;52986;44.028;20.466;2023-06-14T13:58:42;97730.28;;;24.81
66180;BMP280;52986;44.028;20.466;2023-06-14T14:01:08;97737.78;;;24.80
66180;BMP280;52986;44.028;20.466;2023-06-14T14:03:33;97730.69;;;24.92
66180;BMP280;52986;44.028;20.466;2023-06-14T14:06:03;97727.56;;;25.03